createdAt,value
2018-06-27T00:00:00.715Z,99.90
2018-06-27T00:04:57.378Z,99.90
2018-06-27T00:07:25.816Z,99.90
2018-06-27T00:09:54.315Z,99.90
2018-06-27T00:12:22.826Z,99.90
2018-06-27T00:14:51.276Z,99.90
2018-06-27T00:17:19.776Z,99.90
2018-06-27T00:19:48.264Z,99.90
2018-06-27T00:22:16.733Z,99.90
2018-06-27T00:27:13.304Z,99.90
2018-06-27T00:29:41.752Z,99.90
2018-06-27T00:34:38.334Z,99.90
2018-06-27T00:37:06.811Z,99.90
2018-06-27T00:42:03.371Z,99.90
2018-06-27T00:46:59.910Z,99.90
2018-06-27T00:49:28.332Z,99.90
2018-06-27T00:51:56.760Z,99.90
2018-06-27T00:54:25.157Z,99.90
2018-06-27T00:56:53.568Z,99.90
2018-06-27T00:59:21.981Z,99.90
2018-06-27T01:01:50.374Z,99.90
2018-06-27T01:04:18.824Z,99.90
2018-06-27T01:06:47.241Z,99.90
2018-06-27T01:09:15.678Z,99.90
2018-06-27T01:14:12.180Z,99.90
2018-06-27T01:16:40.584Z,99.90
2018-06-27T01:19:09.012Z,99.90
2018-06-27T01:21:37.476Z,99.90
2018-06-27T01:29:02.158Z,99.90
2018-06-27T01:33:58.708Z,99.90
2018-06-27T01:36:27.120Z,99.90
2018-06-27T01:38:55.504Z,99.90
2018-06-27T01:41:24.478Z,99.90
2018-06-27T01:46:21.043Z,99.90
2018-06-27T01:48:49.447Z,99.90
2018-06-27T01:53:46.221Z,99.90
2018-06-27T01:58:42.726Z,99.90
2018-06-27T02:01:11.149Z,99.90
2018-06-27T02:06:07.681Z,99.90
2018-06-27T02:08:36.071Z,99.90
2018-06-27T02:13:32.593Z,99.90
2018-06-27T02:16:01.039Z,99.90
2018-06-27T02:18:29.469Z,99.90
2018-06-27T02:20:57.915Z,99.90
2018-06-27T02:25:54.435Z,99.90
2018-06-27T02:28:22.869Z,99.90
2018-06-27T02:33:24.807Z,99.90
2018-06-27T02:38:21.328Z,99.90
2018-06-27T02:40:49.753Z,99.90
2018-06-27T02:45:46.302Z,99.90
2018-06-27T02:50:42.801Z,99.90
2018-06-27T02:55:39.345Z,99.90
2018-06-27T02:58:07.758Z,99.90
2018-06-27T03:00:36.184Z,99.90
2018-06-27T03:03:04.736Z,99.90
2018-06-27T03:05:33.166Z,99.90
2018-06-27T03:10:29.732Z,99.90
2018-06-27T03:12:58.227Z,99.90
2018-06-27T03:15:26.687Z,99.90
2018-06-27T03:17:55.122Z,99.90
2018-06-27T03:25:20.094Z,99.90
2018-06-27T03:27:48.573Z,99.90
2018-06-27T03:30:17.012Z,99.90
2018-06-27T03:32:45.411Z,99.90
2018-06-27T03:37:42.042Z,99.90
2018-06-27T03:40:10.446Z,99.90
2018-06-27T03:50:03.478Z,99.90
2018-06-27T03:52:32.054Z,99.90
2018-06-27T03:57:28.784Z,99.90
2018-06-27T03:59:57.473Z,99.90
2018-06-27T04:02:26.183Z,99.90
2018-06-27T04:04:54.607Z,99.90
2018-06-27T04:07:23.025Z,99.90
2018-06-27T04:09:51.443Z,99.90
2018-06-27T04:12:19.946Z,99.90
2018-06-27T04:17:16.578Z,99.90
2018-06-27T04:19:45.056Z,99.90
2018-06-27T04:22:13.434Z,99.90
2018-06-27T04:24:41.865Z,99.90
2018-06-27T04:27:10.293Z,99.90
2018-06-27T04:32:06.882Z,99.90
2018-06-27T04:34:35.309Z,99.90
2018-06-27T04:37:03.747Z,99.90
2018-06-27T04:39:32.201Z,99.90
2018-06-27T04:42:00.615Z,99.90
2018-06-27T04:49:25.255Z,99.90
2018-06-27T04:51:53.640Z,99.90
2018-06-27T04:54:22.048Z,99.90
2018-06-27T05:01:46.828Z,99.90
2018-06-27T05:04:15.255Z,99.90
2018-06-27T05:06:43.689Z,99.90
2018-06-27T05:09:12.274Z,99.90
2018-06-27T05:14:08.956Z,99.90
2018-06-27T05:21:33.969Z,99.90
2018-06-27T05:26:30.526Z,99.90
2018-06-27T05:28:58.975Z,99.90
2018-06-27T05:31:27.386Z,99.90
2018-06-27T05:33:55.843Z,99.90
2018-06-27T05:36:24.278Z,99.90
2018-06-27T05:38:52.678Z,99.90
2018-06-27T05:43:49.271Z,99.90
2018-06-27T05:46:17.799Z,99.90
2018-06-27T05:48:46.205Z,99.90
2018-06-27T05:51:14.644Z,99.90
2018-06-27T05:56:11.167Z,99.90
2018-06-27T05:58:39.575Z,99.90
2018-06-27T06:03:36.123Z,99.90
2018-06-27T06:06:04.663Z,99.90
2018-06-27T06:11:01.188Z,99.90
2018-06-27T06:13:29.595Z,99.90
2018-06-27T06:18:26.373Z,99.90
2018-06-27T06:20:54.798Z,99.90
2018-06-27T06:23:23.189Z,99.90
2018-06-27T06:25:51.616Z,99.90
2018-06-27T06:28:20.039Z,99.90
2018-06-27T06:30:48.450Z,99.90
2018-06-27T06:33:16.906Z,99.90
2018-06-27T06:35:45.342Z,99.90
2018-06-27T06:38:13.781Z,99.90
2018-06-27T06:40:42.231Z,99.90
2018-06-27T06:43:10.643Z,99.90
2018-06-27T06:50:35.311Z,99.90
2018-06-27T06:55:32.292Z,99.90
2018-06-27T06:58:00.704Z,99.90
2018-06-27T07:00:29.181Z,99.90
2018-06-27T07:05:25.805Z,99.90
2018-06-27T07:07:54.204Z,99.90
2018-06-27T07:10:22.634Z,99.90
2018-06-27T07:12:51.027Z,99.90
2018-06-27T07:20:15.735Z,99.90
2018-06-27T07:22:44.222Z,99.90
2018-06-27T07:25:12.606Z,99.90
2018-06-27T07:27:41.056Z,99.90
2018-06-27T07:30:09.472Z,99.90
2018-06-27T07:32:37.910Z,99.90
2018-06-27T07:35:06.314Z,99.90
2018-06-27T07:37:34.716Z,99.90
2018-06-27T07:40:03.174Z,99.90
2018-06-27T07:42:31.592Z,99.90
2018-06-27T07:49:56.288Z,99.90
2018-06-27T07:52:24.786Z,99.90
2018-06-27T07:54:53.175Z,99.90
2018-06-27T07:57:21.589Z,99.90
2018-06-27T07:59:50.002Z,99.90
2018-06-27T08:02:18.443Z,99.90
2018-06-27T08:04:46.859Z,99.90
2018-06-27T08:07:15.419Z,99.90
2018-06-27T08:09:43.829Z,99.90
2018-06-27T08:12:12.267Z,99.90
2018-06-27T08:14:40.661Z,99.90
2018-06-27T08:17:09.104Z,99.90
2018-06-27T08:22:05.964Z,95.90
2018-06-27T08:24:34.525Z,90.80
2018-06-27T08:27:02.977Z,89.80
2018-06-27T08:29:31.463Z,91.20
2018-06-27T08:31:59.907Z,85.70
2018-06-27T08:34:28.344Z,85.50
2018-06-27T08:36:56.778Z,77.40
2018-06-27T08:39:25.275Z,80.10
2018-06-27T08:44:21.830Z,81.10
2018-06-27T08:46:50.233Z,85.00
2018-06-27T08:51:46.771Z,86.60
2018-06-27T08:54:15.199Z,92.10
2018-06-27T08:56:43.625Z,92.30
2018-06-27T09:06:36.415Z,87.30
2018-06-27T09:14:03.454Z,95.90
2018-06-27T09:16:31.897Z,94.10
2018-06-27T09:19:00.307Z,95.70
2018-06-27T09:23:57.135Z,97.10
2018-06-27T09:26:25.559Z,97.10
2018-06-27T09:28:53.978Z,96.50
2018-06-27T09:31:22.402Z,99.50
2018-06-27T09:33:50.834Z,99.00
2018-06-27T09:36:19.307Z,99.90
2018-06-27T09:43:43.941Z,99.90
2018-06-27T09:46:12.421Z,99.90
2018-06-27T09:48:40.822Z,99.90
2018-06-27T09:51:09.234Z,99.90
2018-06-27T09:53:37.624Z,99.90
2018-06-27T09:56:06.102Z,99.90
2018-06-27T09:58:34.534Z,99.90
2018-06-27T10:01:03.126Z,99.90
2018-06-27T10:05:59.741Z,99.90
2018-06-27T10:08:28.152Z,99.90
2018-06-27T10:13:24.739Z,99.90
2018-06-27T10:15:53.161Z,99.90
2018-06-27T10:18:21.653Z,99.90
2018-06-27T10:23:18.153Z,99.90
2018-06-27T10:25:46.563Z,99.90
2018-06-27T10:30:43.169Z,99.90
2018-06-27T10:33:13.343Z,99.90
2018-06-27T10:35:41.757Z,99.90
2018-06-27T10:38:10.203Z,99.90
2018-06-27T10:40:38.706Z,99.90
2018-06-27T10:43:07.135Z,99.90
2018-06-27T10:45:35.657Z,99.90
2018-06-27T10:53:00.371Z,99.90
2018-06-27T10:57:56.924Z,99.90
2018-06-27T11:00:25.340Z,99.90
2018-06-27T11:05:21.987Z,99.90
2018-06-27T11:07:50.360Z,95.50
2018-06-27T11:10:18.828Z,97.20
2018-06-27T11:12:47.506Z,99.90
2018-06-27T11:15:15.995Z,99.90
2018-06-27T11:17:44.411Z,96.00
2018-06-27T11:22:40.983Z,91.40
2018-06-27T11:25:09.468Z,96.30
2018-06-27T11:27:37.896Z,94.40
2018-06-27T11:35:02.696Z,96.70
2018-06-27T11:37:31.404Z,97.40
2018-06-27T11:39:59.959Z,87.00
2018-06-27T11:44:56.580Z,83.90
2018-06-27T11:47:25.023Z,85.70
2018-06-27T11:49:53.447Z,88.80
2018-06-27T11:54:54.359Z,94.90
2018-06-27T11:57:22.777Z,99.90
2018-06-27T11:59:51.385Z,99.90
2018-06-27T12:02:19.933Z,96.30
2018-06-27T12:04:48.371Z,90.40
2018-06-27T12:07:16.836Z,79.10
2018-06-27T12:12:13.396Z,97.70
2018-06-27T12:24:34.568Z,99.90
2018-06-27T12:27:02.991Z,99.90
2018-06-27T12:31:59.531Z,99.90
2018-06-27T12:34:27.963Z,99.90
2018-06-27T12:36:56.421Z,99.90
2018-06-27T12:39:24.991Z,99.90
2018-06-27T12:44:21.627Z,99.90
2018-06-27T12:46:50.101Z,99.90
2018-06-27T12:49:18.524Z,99.90
2018-06-27T12:56:43.280Z,99.90
2018-06-27T12:59:11.758Z,99.90
2018-06-27T13:01:40.229Z,99.90
2018-06-27T13:04:08.702Z,99.90
2018-06-27T13:06:37.297Z,99.90
2018-06-27T13:11:36.013Z,99.90
2018-06-27T13:16:32.759Z,99.90
2018-06-27T13:19:01.364Z,99.90
2018-06-27T13:21:29.863Z,99.90
2018-06-27T13:26:26.648Z,99.90
2018-06-27T13:28:55.202Z,99.90
2018-06-27T13:31:23.935Z,99.90
2018-06-27T13:33:52.387Z,99.90
2018-06-27T13:38:49.000Z,99.90
2018-06-27T13:48:42.148Z,99.90
2018-06-27T13:51:10.661Z,99.90
2018-06-27T13:53:39.156Z,99.90
2018-06-27T13:56:07.585Z,99.90
2018-06-27T13:58:36.316Z,99.90
2018-06-27T14:01:04.782Z,99.90
2018-06-27T14:03:33.249Z,99.90
2018-06-27T14:06:01.679Z,99.90
2018-06-27T14:08:30.142Z,99.90
2018-06-27T14:18:23.169Z,99.90
2018-06-27T14:20:51.567Z,99.90
2018-06-27T14:23:20.400Z,99.90
2018-06-27T14:25:49.029Z,99.90
2018-06-27T14:28:17.488Z,99.90
2018-06-27T14:30:45.931Z,99.90
2018-06-27T14:33:14.536Z,99.90
2018-06-27T14:38:11.299Z,99.90
2018-06-27T14:40:39.915Z,97.50
2018-06-27T14:43:08.374Z,99.50
2018-06-27T14:45:36.864Z,96.50
2018-06-27T14:48:05.408Z,90.90
2018-06-27T14:50:33.862Z,89.80
2018-06-27T14:55:30.515Z,91.20
2018-06-27T14:57:59.329Z,94.40
2018-06-27T15:00:27.802Z,92.20
2018-06-27T15:02:56.277Z,91.50
2018-06-27T15:05:24.816Z,89.40
2018-06-27T15:07:53.270Z,87.50
2018-06-27T15:10:21.741Z,90.10
2018-06-27T15:12:50.146Z,86.10
2018-06-27T15:15:18.681Z,89.30
2018-06-27T15:22:43.616Z,94.70
2018-06-27T15:25:12.169Z,97.10
2018-06-27T15:27:40.625Z,97.20
2018-06-27T15:32:37.468Z,95.70
2018-06-27T15:35:06.393Z,96.00
2018-06-27T15:37:34.857Z,95.30
2018-06-27T15:42:31.657Z,95.80
2018-06-27T15:47:28.368Z,93.90
2018-06-27T15:49:57.044Z,95.60
2018-06-27T15:54:53.811Z,99.90
2018-06-27T15:57:23.473Z,96.80
2018-06-27T15:59:53.987Z,95.30
2018-06-27T16:02:24.949Z,97.90
2018-06-27T16:04:53.723Z,93.60
2018-06-27T16:07:22.181Z,96.30
2018-06-27T16:12:19.798Z,95.50
2018-06-27T16:17:16.964Z,99.90
2018-06-27T16:22:13.569Z,99.90
2018-06-27T16:24:42.447Z,99.90
2018-06-27T16:32:07.755Z,99.90
2018-06-27T16:34:36.248Z,99.90
2018-06-27T16:39:32.944Z,99.90
2018-06-27T16:42:02.381Z,99.80
2018-06-27T16:44:30.903Z,99.90
2018-06-27T16:49:27.686Z,99.90
2018-06-27T16:51:56.295Z,99.90
2018-06-27T16:59:21.592Z,98.70
2018-06-27T17:04:18.398Z,98.70
2018-06-27T17:09:15.219Z,99.10
2018-06-27T17:11:43.929Z,99.60
2018-06-27T17:14:13.417Z,99.90
2018-06-27T17:16:42.092Z,99.90
2018-06-27T17:19:10.995Z,99.90
2018-06-27T17:21:39.999Z,99.90
2018-06-27T17:24:08.768Z,99.90
2018-06-27T17:26:37.395Z,99.90
2018-06-27T17:29:06.165Z,99.90
2018-06-27T17:31:35.127Z,99.90
2018-06-27T17:34:03.747Z,99.90
2018-06-27T17:36:32.918Z,99.90
2018-06-27T17:41:30.559Z,99.90
2018-06-27T17:43:59.666Z,99.90
2018-06-27T17:46:28.511Z,99.90
2018-06-27T17:48:57.418Z,99.90
2018-06-27T17:51:27.473Z,99.90
2018-06-27T17:53:56.338Z,99.90
2018-06-27T17:56:24.989Z,99.90
2018-06-27T17:58:56.386Z,99.90
2018-06-27T18:01:25.071Z,99.90
2018-06-27T18:03:53.611Z,99.90
2018-06-27T18:06:22.109Z,99.90
2018-06-27T18:08:50.814Z,99.90
2018-06-27T18:13:48.412Z,99.90
2018-06-27T18:16:16.949Z,99.90
2018-06-27T18:18:47.123Z,99.90
2018-06-27T18:23:46.540Z,99.90
2018-06-27T18:28:43.865Z,99.90
2018-06-27T18:33:42.412Z,99.90
2018-06-27T18:36:11.648Z,99.90
2018-06-27T18:38:40.195Z,99.90
2018-06-27T18:41:09.981Z,99.90
2018-06-27T18:48:41.285Z,99.90
2018-06-27T18:51:11.951Z,99.90
2018-06-27T18:56:10.675Z,99.90
2018-06-27T18:58:40.329Z,99.90
2018-06-27T19:13:33.002Z,99.90
2018-06-27T19:18:30.675Z,99.90
2018-06-27T19:20:59.305Z,99.90
2018-06-27T19:25:58.992Z,99.90
2018-06-27T19:33:24.418Z,99.90
2018-06-27T19:35:53.439Z,99.90
2018-06-27T19:38:25.170Z,99.90
2018-06-27T19:40:54.458Z,99.90
2018-06-27T19:43:24.732Z,99.90
2018-06-27T19:45:55.049Z,99.90
2018-06-27T19:48:25.042Z,99.90
2018-06-27T19:50:54.799Z,99.90
2018-06-27T19:53:25.484Z,99.90
2018-06-27T20:00:52.876Z,99.90
2018-06-27T20:05:49.763Z,99.90
2018-06-27T20:10:47.608Z,99.90
2018-06-27T20:13:16.151Z,99.90
2018-06-27T20:15:45.532Z,99.90
2018-06-27T20:18:14.127Z,99.90
2018-06-27T20:25:40.647Z,99.90
2018-06-27T20:35:36.951Z,99.90
2018-06-27T20:40:40.875Z,99.90
2018-06-27T20:43:10.197Z,99.90
2018-06-27T20:45:39.557Z,99.90
2018-06-27T20:48:08.513Z,99.90
2018-06-27T20:50:38.189Z,99.90
2018-06-27T20:53:08.591Z,99.90
2018-06-27T20:55:37.249Z,99.90
2018-06-27T21:05:30.483Z,99.90
2018-06-27T21:07:59.147Z,99.90
2018-06-27T21:10:28.006Z,99.90
2018-06-27T21:12:56.809Z,99.90
2018-06-27T21:15:25.265Z,99.90
2018-06-27T21:17:53.720Z,99.90
2018-06-27T21:22:50.363Z,99.90
2018-06-27T21:27:46.942Z,99.90
2018-06-27T21:30:15.429Z,99.90
2018-06-27T21:35:12.028Z,99.90
2018-06-27T21:40:08.587Z,99.90
2018-06-27T21:42:37.021Z,99.90
2018-06-27T21:45:05.573Z,99.90
2018-06-27T21:47:34.078Z,99.90
2018-06-27T21:52:30.651Z,99.90
2018-06-27T21:57:27.199Z,99.90
2018-06-27T22:02:23.948Z,99.90
2018-06-27T22:04:52.339Z,99.90
2018-06-27T22:07:20.768Z,99.90
2018-06-27T22:09:49.185Z,99.90
2018-06-27T22:12:17.694Z,99.90
2018-06-27T22:14:46.115Z,99.90
2018-06-27T22:22:10.789Z,99.90
2018-06-27T22:24:39.221Z,99.90
2018-06-27T22:32:04.045Z,99.90
2018-06-27T22:34:32.623Z,99.90
2018-06-27T22:37:01.012Z,99.90
2018-06-27T22:39:29.497Z,99.90
2018-06-27T22:41:57.924Z,99.90
2018-06-27T22:44:26.343Z,99.90
2018-06-27T22:46:54.789Z,99.90
2018-06-27T22:49:23.249Z,99.90
2018-06-27T22:51:51.651Z,99.90
2018-06-27T22:59:16.337Z,99.90
2018-06-27T23:01:44.765Z,99.90
2018-06-27T23:04:13.245Z,99.90
2018-06-27T23:06:41.777Z,99.90
2018-06-27T23:09:10.818Z,99.90
2018-06-27T23:11:39.295Z,99.90
2018-06-27T23:14:08.062Z,99.90
2018-06-27T23:16:36.449Z,99.90
2018-06-27T23:19:05.109Z,99.90
2018-06-27T23:26:29.822Z,99.90
2018-06-27T23:28:58.334Z,99.90
2018-06-27T23:33:54.923Z,99.90
2018-06-27T23:38:51.480Z,99.90
2018-06-27T23:41:19.906Z,99.90
2018-06-27T23:43:48.336Z,99.90
2018-06-27T23:46:16.830Z,99.90
2018-06-27T23:48:45.269Z,99.90
2018-06-27T23:53:41.804Z,99.90
2018-06-27T23:58:38.370Z,99.90
